sensor_id;sensor_type;location;lat;lon;timestamp;P1;durP1;ratioP1;P2;durP2;ratioP2
69207;SDS011;70114;47.690;8.898;2024-02-26T00:00:29;2.55;;;0.20;;
69207;SDS011;70114;47.690;8.898;2024-02-26T00:02:55;2.15;;;0.20;;
69207;SDS011;70114;47.690;8.898;2024-02-26T00:05:20;3.33;;;0.10;;
69207;SDS011;70114;47.690;8.898;2024-02-26T00:07:46;1.63;;;0.20;;
69207;SDS011;70114;47.690;8.898;2024-02-26T00:10:12;2.15;;;0.20;;
69207;SDS011;70114;47.690;8.898;2024-02-26T00:12:38;1.65;;;0.20;;
69207;SDS011;70114;47.690;8.898;2024-02-26T00:15:05;2.10;;;0.20;;
69207;SDS011;70114;47.690;8.898;2024-02-26T00:17:34;1.50;;;0.15;;
69207;SDS011;70114;47.690;8.898;2024-02-26T00:19:59;1.43;;;0.10;;
69207;SDS011;70114;47.690;8.898;2024-02-26T00:22:25;1.48;;;0.17;;
69207;SDS011;70114;47.690;8.898;2024-02-26T00:24:51;2.43;;;0.17;;
69207;SDS011;70114;47.690;8.898;2024-02-26T00:27:16;1.98;;;0.20;;
69207;SDS011;70114;47.690;8.898;2024-02-26T00:29:42;2.63;;;0.30;;
69207;SDS011;70114;47.690;8.898;2024-02-26T00:32:07;2.30;;;0.20;;
69207;SDS011;70114;47.690;8.898;2024-02-26T00:34:33;2.77;;;0.20;;
69207;SDS011;70114;47.690;8.898;2024-02-26T00:36:58;1.40;;;0.20;;
69207;SDS011;70114;47.690;8.898;2024-02-26T00:39:23;2.90;;;0.20;;
69207;SDS011;70114;47.690;8.898;2024-02-26T00:41:49;1.50;;;0.20;;
69207;SDS011;70114;47.690;8.898;2024-02-26T00:44:16;2.03;;;0.20;;
69207;SDS011;70114;47.690;8.898;2024-02-26T00:46:42;1.90;;;0.20;;
69207;SDS011;70114;47.690;8.898;2024-02-26T00:49:07;3.10;;;0.30;;
69207;SDS011;70114;47.690;8.898;2024-02-26T00:51:32;2.33;;;0.17;;
69207;SDS011;70114;47.690;8.898;2024-02-26T00:53:58;1.80;;;0.20;;
69207;SDS011;70114;47.690;8.898;2024-02-26T00:56:23;1.30;;;0.10;;
69207;SDS011;70114;47.690;8.898;2024-02-26T00:58:48;1.60;;;0.10;;
69207;SDS011;70114;47.690;8.898;2024-02-26T01:01:14;1.40;;;0.10;;
69207;SDS011;70114;47.690;8.898;2024-02-26T01:03:39;2.40;;;0.10;;
69207;SDS011;70114;47.690;8.898;2024-02-26T01:06:05;1.47;;;0.20;;
69207;SDS011;70114;47.690;8.898;2024-02-26T01:08:30;6.37;;;1.60;;
69207;SDS011;70114;47.690;8.898;2024-02-26T01:10:56;10.00;;;3.10;;
69207;SDS011;70114;47.690;8.898;2024-02-26T01:13:22;8.60;;;2.40;;
69207;SDS011;70114;47.690;8.898;2024-02-26T01:15:47;10.13;;;3.13;;
69207;SDS011;70114;47.690;8.898;2024-02-26T01:18:13;6.68;;;1.10;;
69207;SDS011;70114;47.690;8.898;2024-02-26T01:20:38;5.17;;;0.73;;
69207;SDS011;70114;47.690;8.898;2024-02-26T01:23:04;5.47;;;0.67;;
69207;SDS011;70114;47.690;8.898;2024-02-26T01:25:29;5.93;;;0.63;;
69207;SDS011;70114;47.690;8.898;2024-02-26T01:27:54;7.77;;;1.70;;
69207;SDS011;70114;47.690;8.898;2024-02-26T01:30:20;6.20;;;1.00;;
69207;SDS011;70114;47.690;8.898;2024-02-26T01:32:45;3.33;;;0.50;;
69207;SDS011;70114;47.690;8.898;2024-02-26T01:35:10;4.10;;;0.40;;
69207;SDS011;70114;47.690;8.898;2024-02-26T01:37:37;3.03;;;0.38;;
69207;SDS011;70114;47.690;8.898;2024-02-26T01:40:02;3.50;;;0.40;;
69207;SDS011;70114;47.690;8.898;2024-02-26T01:42:29;2.40;;;0.30;;
69207;SDS011;70114;47.690;8.898;2024-02-26T01:44:56;2.03;;;0.30;;
69207;SDS011;70114;47.690;8.898;2024-02-26T01:47:21;3.73;;;0.40;;
69207;SDS011;70114;47.690;8.898;2024-02-26T01:49:47;4.47;;;0.70;;
69207;SDS011;70114;47.690;8.898;2024-02-26T01:52:13;3.70;;;0.50;;
69207;SDS011;70114;47.690;8.898;2024-02-26T01:54:39;5.10;;;0.90;;
69207;SDS011;70114;47.690;8.898;2024-02-26T01:57:05;5.22;;;0.98;;
69207;SDS011;70114;47.690;8.898;2024-02-26T01:59:32;3.72;;;0.50;;
69207;SDS011;70114;47.690;8.898;2024-02-26T02:01:58;3.67;;;0.50;;
69207;SDS011;70114;47.690;8.898;2024-02-26T02:04:28;3.28;;;0.40;;
69207;SDS011;70114;47.690;8.898;2024-02-26T02:06:54;4.00;;;0.40;;
69207;SDS011;70114;47.690;8.898;2024-02-26T02:09:20;2.88;;;0.30;;
69207;SDS011;70114;47.690;8.898;2024-02-26T02:11:47;3.17;;;0.40;;
69207;SDS011;70114;47.690;8.898;2024-02-26T02:14:14;4.47;;;0.50;;
69207;SDS011;70114;47.690;8.898;2024-02-26T02:16:39;3.17;;;0.40;;
69207;SDS011;70114;47.690;8.898;2024-02-26T02:19:05;11.93;;;2.53;;
69207;SDS011;70114;47.690;8.898;2024-02-26T02:21:30;11.57;;;3.08;;
69207;SDS011;70114;47.690;8.898;2024-02-26T02:23:56;9.30;;;1.50;;
69207;SDS011;70114;47.690;8.898;2024-02-26T02:26:21;16.83;;;3.60;;
69207;SDS011;70114;47.690;8.898;2024-02-26T02:28:47;37.17;;;7.70;;
69207;SDS011;70114;47.690;8.898;2024-02-26T02:31:13;23.08;;;4.90;;
69207;SDS011;70114;47.690;8.898;2024-02-26T02:33:39;13.80;;;3.35;;
69207;SDS011;70114;47.690;8.898;2024-02-26T02:36:05;6.28;;;1.35;;
69207;SDS011;70114;47.690;8.898;2024-02-26T02:38:34;13.17;;;2.37;;
69207;SDS011;70114;47.690;8.898;2024-02-26T02:41:00;13.55;;;2.55;;
69207;SDS011;70114;47.690;8.898;2024-02-26T02:43:26;9.10;;;1.30;;
69207;SDS011;70114;47.690;8.898;2024-02-26T02:45:51;6.20;;;0.77;;
69207;SDS011;70114;47.690;8.898;2024-02-26T02:48:17;6.23;;;0.93;;
69207;SDS011;70114;47.690;8.898;2024-02-26T02:50:43;5.47;;;1.00;;
69207;SDS011;70114;47.690;8.898;2024-02-26T02:53:08;4.18;;;0.50;;
69207;SDS011;70114;47.690;8.898;2024-02-26T02:55:34;4.57;;;0.40;;
69207;SDS011;70114;47.690;8.898;2024-02-26T02:57:59;5.50;;;0.57;;
69207;SDS011;70114;47.690;8.898;2024-02-26T03:00:24;5.47;;;0.50;;
69207;SDS011;70114;47.690;8.898;2024-02-26T03:02:50;5.07;;;0.80;;
69207;SDS011;70114;47.690;8.898;2024-02-26T03:05:15;6.75;;;0.77;;
69207;SDS011;70114;47.690;8.898;2024-02-26T03:07:41;5.47;;;0.70;;
69207;SDS011;70114;47.690;8.898;2024-02-26T03:10:06;3.37;;;0.47;;
69207;SDS011;70114;47.690;8.898;2024-02-26T03:12:33;3.47;;;0.38;;
69207;SDS011;70114;47.690;8.898;2024-02-26T03:14:59;2.80;;;0.30;;
69207;SDS011;70114;47.690;8.898;2024-02-26T03:17:27;2.92;;;0.43;;
69207;SDS011;70114;47.690;8.898;2024-02-26T03:19:56;2.97;;;0.30;;
69207;SDS011;70114;47.690;8.898;2024-02-26T03:22:21;2.93;;;0.40;;
69207;SDS011;70114;47.690;8.898;2024-02-26T03:24:47;2.97;;;0.30;;
69207;SDS011;70114;47.690;8.898;2024-02-26T03:27:13;4.93;;;0.40;;
69207;SDS011;70114;47.690;8.898;2024-02-26T03:29:38;4.40;;;0.53;;
69207;SDS011;70114;47.690;8.898;2024-02-26T03:32:04;4.53;;;0.40;;
69207;SDS011;70114;47.690;8.898;2024-02-26T03:34:30;3.90;;;0.40;;
69207;SDS011;70114;47.690;8.898;2024-02-26T03:36:56;3.33;;;0.50;;
69207;SDS011;70114;47.690;8.898;2024-02-26T03:39:22;4.00;;;0.60;;
69207;SDS011;70114;47.690;8.898;2024-02-26T03:41:47;3.17;;;0.50;;
69207;SDS011;70114;47.690;8.898;2024-02-26T03:44:13;3.85;;;0.50;;
69207;SDS011;70114;47.690;8.898;2024-02-26T03:46:39;3.77;;;0.50;;
69207;SDS011;70114;47.690;8.898;2024-02-26T03:49:04;4.10;;;0.50;;
69207;SDS011;70114;47.690;8.898;2024-02-26T03:51:29;4.27;;;0.40;;
69207;SDS011;70114;47.690;8.898;2024-02-26T03:53:57;3.53;;;0.50;;
69207;SDS011;70114;47.690;8.898;2024-02-26T03:56:23;3.47;;;0.40;;
69207;SDS011;70114;47.690;8.898;2024-02-26T03:58:48;3.27;;;0.40;;
69207;SDS011;70114;47.690;8.898;2024-02-26T04:01:14;4.20;;;0.40;;
69207;SDS011;70114;47.690;8.898;2024-02-26T04:03:39;3.63;;;0.47;;
69207;SDS011;70114;47.690;8.898;2024-02-26T04:06:04;3.47;;;0.43;;
69207;SDS011;70114;47.690;8.898;2024-02-26T04:08:33;4.00;;;0.47;;
69207;SDS011;70114;47.690;8.898;2024-02-26T04:10:58;3.42;;;0.47;;
69207;SDS011;70114;47.690;8.898;2024-02-26T04:13:24;3.57;;;0.43;;
69207;SDS011;70114;47.690;8.898;2024-02-26T04:15:49;3.00;;;0.40;;
69207;SDS011;70114;47.690;8.898;2024-02-26T04:18:14;3.43;;;0.53;;
69207;SDS011;70114;47.690;8.898;2024-02-26T04:20:40;4.90;;;0.50;;
69207;SDS011;70114;47.690;8.898;2024-02-26T04:23:07;6.00;;;0.98;;
69207;SDS011;70114;47.690;8.898;2024-02-26T04:25:32;4.05;;;0.60;;
69207;SDS011;70114;47.690;8.898;2024-02-26T04:27:58;4.70;;;0.77;;
69207;SDS011;70114;47.690;8.898;2024-02-26T04:30:23;5.03;;;0.93;;
69207;SDS011;70114;47.690;8.898;2024-02-26T04:32:49;3.60;;;0.60;;
69207;SDS011;70114;47.690;8.898;2024-02-26T04:35:14;3.03;;;0.50;;
69207;SDS011;70114;47.690;8.898;2024-02-26T04:37:39;5.00;;;0.80;;
69207;SDS011;70114;47.690;8.898;2024-02-26T04:40:05;4.33;;;0.50;;
69207;SDS011;70114;47.690;8.898;2024-02-26T04:42:31;4.28;;;0.70;;
69207;SDS011;70114;47.690;8.898;2024-02-26T04:44:56;4.63;;;0.70;;
69207;SDS011;70114;47.690;8.898;2024-02-26T04:47:22;4.17;;;0.50;;
69207;SDS011;70114;47.690;8.898;2024-02-26T04:49:48;4.28;;;0.43;;
69207;SDS011;70114;47.690;8.898;2024-02-26T04:52:15;4.43;;;0.50;;
69207;SDS011;70114;47.690;8.898;2024-02-26T04:54:40;3.80;;;0.50;;
69207;SDS011;70114;47.690;8.898;2024-02-26T04:57:05;3.87;;;0.40;;
69207;SDS011;70114;47.690;8.898;2024-02-26T04:59:31;3.80;;;0.40;;
69207;SDS011;70114;47.690;8.898;2024-02-26T05:01:56;3.40;;;0.40;;
69207;SDS011;70114;47.690;8.898;2024-02-26T05:04:21;4.93;;;0.50;;
69207;SDS011;70114;47.690;8.898;2024-02-26T05:06:47;4.63;;;0.73;;
69207;SDS011;70114;47.690;8.898;2024-02-26T05:09:12;5.13;;;0.90;;
69207;SDS011;70114;47.690;8.898;2024-02-26T05:11:38;4.27;;;0.50;;
69207;SDS011;70114;47.690;8.898;2024-02-26T05:14:03;3.17;;;0.40;;
69207;SDS011;70114;47.690;8.898;2024-02-26T05:16:28;4.17;;;0.60;;
69207;SDS011;70114;47.690;8.898;2024-02-26T05:18:56;4.70;;;0.50;;
69207;SDS011;70114;47.690;8.898;2024-02-26T05:21:21;6.60;;;0.80;;
69207;SDS011;70114;47.690;8.898;2024-02-26T05:23:46;4.53;;;0.93;;
69207;SDS011;70114;47.690;8.898;2024-02-26T05:26:18;4.27;;;0.60;;
69207;SDS011;70114;47.690;8.898;2024-02-26T05:28:44;3.70;;;0.60;;
69207;SDS011;70114;47.690;8.898;2024-02-26T05:31:12;5.30;;;0.90;;
69207;SDS011;70114;47.690;8.898;2024-02-26T05:33:38;5.00;;;1.00;;
69207;SDS011;70114;47.690;8.898;2024-02-26T05:36:03;6.70;;;2.33;;
69207;SDS011;70114;47.690;8.898;2024-02-26T05:38:30;4.78;;;0.80;;
69207;SDS011;70114;47.690;8.898;2024-02-26T05:40:56;4.88;;;1.10;;
69207;SDS011;70114;47.690;8.898;2024-02-26T05:43:23;5.53;;;1.10;;
69207;SDS011;70114;47.690;8.898;2024-02-26T05:45:48;4.47;;;0.93;;
69207;SDS011;70114;47.690;8.898;2024-02-26T05:48:14;5.60;;;0.83;;
69207;SDS011;70114;47.690;8.898;2024-02-26T05:50:39;4.83;;;0.80;;
69207;SDS011;70114;47.690;8.898;2024-02-26T05:53:04;3.70;;;0.60;;
69207;SDS011;70114;47.690;8.898;2024-02-26T05:55:30;3.97;;;0.60;;
69207;SDS011;70114;47.690;8.898;2024-02-26T05:57:55;7.40;;;2.03;;
69207;SDS011;70114;47.690;8.898;2024-02-26T06:00:20;7.23;;;1.63;;
69207;SDS011;70114;47.690;8.898;2024-02-26T06:02:46;7.63;;;1.57;;
69207;SDS011;70114;47.690;8.898;2024-02-26T06:05:11;5.57;;;1.30;;
69207;SDS011;70114;47.690;8.898;2024-02-26T06:07:37;7.97;;;2.50;;
69207;SDS011;70114;47.690;8.898;2024-02-26T06:10:02;6.90;;;2.10;;
69207;SDS011;70114;47.690;8.898;2024-02-26T06:12:29;6.00;;;2.03;;
69207;SDS011;70114;47.690;8.898;2024-02-26T06:14:55;5.68;;;2.00;;
69207;SDS011;70114;47.690;8.898;2024-02-26T06:17:21;7.50;;;1.80;;
69207;SDS011;70114;47.690;8.898;2024-02-26T06:19:46;5.90;;;1.90;;
69207;SDS011;70114;47.690;8.898;2024-02-26T06:22:12;6.17;;;1.70;;
69207;SDS011;70114;47.690;8.898;2024-02-26T06:24:37;6.67;;;1.70;;
69207;SDS011;70114;47.690;8.898;2024-02-26T06:27:03;8.90;;;3.13;;
69207;SDS011;70114;47.690;8.898;2024-02-26T06:29:28;6.43;;;1.77;;
69207;SDS011;70114;47.690;8.898;2024-02-26T06:31:54;4.67;;;0.90;;
69207;SDS011;70114;47.690;8.898;2024-02-26T06:34:19;5.72;;;1.35;;
69207;SDS011;70114;47.690;8.898;2024-02-26T06:36:44;6.87;;;1.43;;
69207;SDS011;70114;47.690;8.898;2024-02-26T06:39:10;6.60;;;1.63;;
69207;SDS011;70114;47.690;8.898;2024-02-26T06:41:37;9.35;;;3.05;;
69207;SDS011;70114;47.690;8.898;2024-02-26T06:44:04;8.52;;;2.70;;
69207;SDS011;70114;47.690;8.898;2024-02-26T06:46:30;8.37;;;3.50;;
69207;SDS011;70114;47.690;8.898;2024-02-26T06:48:55;8.23;;;2.53;;
69207;SDS011;70114;47.690;8.898;2024-02-26T06:51:21;7.23;;;2.00;;
69207;SDS011;70114;47.690;8.898;2024-02-26T06:53:47;6.25;;;1.80;;
69207;SDS011;70114;47.690;8.898;2024-02-26T06:56:14;4.13;;;0.85;;
69207;SDS011;70114;47.690;8.898;2024-02-26T06:58:40;5.17;;;0.80;;
69207;SDS011;70114;47.690;8.898;2024-02-26T07:01:05;4.60;;;0.30;;
69207;SDS011;70114;47.690;8.898;2024-02-26T07:03:33;2.22;;;0.30;;
69207;SDS011;70114;47.690;8.898;2024-02-26T07:05:58;6.00;;;0.40;;
69207;SDS011;70114;47.690;8.898;2024-02-26T07:08:23;3.00;;;0.50;;
69207;SDS011;70114;47.690;8.898;2024-02-26T07:10:49;2.80;;;0.30;;
69207;SDS011;70114;47.690;8.898;2024-02-26T07:13:14;2.23;;;0.30;;
69207;SDS011;70114;47.690;8.898;2024-02-26T07:15:40;2.90;;;0.33;;
69207;SDS011;70114;47.690;8.898;2024-02-26T07:18:05;2.87;;;0.37;;
69207;SDS011;70114;47.690;8.898;2024-02-26T07:20:30;2.53;;;0.40;;
69207;SDS011;70114;47.690;8.898;2024-02-26T07:22:56;2.90;;;0.30;;
69207;SDS011;70114;47.690;8.898;2024-02-26T07:25:22;2.97;;;0.30;;
69207;SDS011;70114;47.690;8.898;2024-02-26T07:27:47;3.20;;;0.30;;
69207;SDS011;70114;47.690;8.898;2024-02-26T07:30:12;2.37;;;0.20;;
69207;SDS011;70114;47.690;8.898;2024-02-26T07:32:38;3.53;;;0.30;;
69207;SDS011;70114;47.690;8.898;2024-02-26T07:35:04;2.40;;;0.20;;
69207;SDS011;70114;47.690;8.898;2024-02-26T07:37:30;1.88;;;0.28;;
69207;SDS011;70114;47.690;8.898;2024-02-26T07:39:55;3.90;;;0.50;;
69207;SDS011;70114;47.690;8.898;2024-02-26T07:42:21;11.87;;;3.73;;
69207;SDS011;70114;47.690;8.898;2024-02-26T07:44:46;6.37;;;0.80;;
69207;SDS011;70114;47.690;8.898;2024-02-26T07:47:11;1.97;;;0.20;;
69207;SDS011;70114;47.690;8.898;2024-02-26T07:49:37;5.93;;;1.57;;
69207;SDS011;70114;47.690;8.898;2024-02-26T07:52:02;4.13;;;0.70;;
69207;SDS011;70114;47.690;8.898;2024-02-26T07:54:27;3.90;;;0.47;;
69207;SDS011;70114;47.690;8.898;2024-02-26T07:56:53;3.17;;;0.37;;
69207;SDS011;70114;47.690;8.898;2024-02-26T07:59:18;4.10;;;0.70;;
69207;SDS011;70114;47.690;8.898;2024-02-26T08:01:43;5.43;;;0.60;;
69207;SDS011;70114;47.690;8.898;2024-02-26T08:04:09;4.70;;;0.50;;
69207;SDS011;70114;47.690;8.898;2024-02-26T08:06:34;5.80;;;1.10;;
69207;SDS011;70114;47.690;8.898;2024-02-26T08:09:00;9.03;;;2.13;;
69207;SDS011;70114;47.690;8.898;2024-02-26T08:11:25;8.10;;;2.28;;
69207;SDS011;70114;47.690;8.898;2024-02-26T08:13:50;8.20;;;1.97;;
69207;SDS011;70114;47.690;8.898;2024-02-26T08:16:16;7.40;;;2.17;;
69207;SDS011;70114;47.690;8.898;2024-02-26T08:18:41;7.47;;;2.07;;
69207;SDS011;70114;47.690;8.898;2024-02-26T08:21:07;10.97;;;4.10;;
69207;SDS011;70114;47.690;8.898;2024-02-26T08:23:33;6.60;;;1.85;;
69207;SDS011;70114;47.690;8.898;2024-02-26T08:25:59;6.47;;;1.60;;
69207;SDS011;70114;47.690;8.898;2024-02-26T08:28:24;7.82;;;2.10;;
69207;SDS011;70114;47.690;8.898;2024-02-26T08:30:49;3.43;;;0.60;;
69207;SDS011;70114;47.690;8.898;2024-02-26T08:33:15;3.93;;;0.50;;
69207;SDS011;70114;47.690;8.898;2024-02-26T08:35:40;4.17;;;0.50;;
69207;SDS011;70114;47.690;8.898;2024-02-26T08:38:06;3.28;;;0.38;;
69207;SDS011;70114;47.690;8.898;2024-02-26T08:40:31;3.83;;;0.47;;
69207;SDS011;70114;47.690;8.898;2024-02-26T08:42:56;2.60;;;0.30;;
69207;SDS011;70114;47.690;8.898;2024-02-26T08:45:22;3.05;;;0.40;;
69207;SDS011;70114;47.690;8.898;2024-02-26T08:47:48;2.93;;;0.40;;
69207;SDS011;70114;47.690;8.898;2024-02-26T08:50:14;3.77;;;0.40;;
69207;SDS011;70114;47.690;8.898;2024-02-26T08:52:39;2.88;;;0.25;;
69207;SDS011;70114;47.690;8.898;2024-02-26T08:55:05;2.80;;;0.30;;
69207;SDS011;70114;47.690;8.898;2024-02-26T08:57:33;1.90;;;0.23;;
69207;SDS011;70114;47.690;8.898;2024-02-26T08:59:59;3.30;;;0.32;;
69207;SDS011;70114;47.690;8.898;2024-02-26T09:02:25;2.97;;;0.40;;
69207;SDS011;70114;47.690;8.898;2024-02-26T09:04:51;4.40;;;0.50;;
69207;SDS011;70114;47.690;8.898;2024-02-26T09:07:19;3.50;;;0.60;;
69207;SDS011;70114;47.690;8.898;2024-02-26T09:09:44;3.37;;;0.60;;
69207;SDS011;70114;47.690;8.898;2024-02-26T09:12:10;5.15;;;0.60;;
69207;SDS011;70114;47.690;8.898;2024-02-26T09:14:35;5.63;;;0.63;;
69207;SDS011;70114;47.690;8.898;2024-02-26T09:17:01;6.10;;;0.73;;
69207;SDS011;70114;47.690;8.898;2024-02-26T09:19:26;4.37;;;0.60;;
69207;SDS011;70114;47.690;8.898;2024-02-26T09:21:52;4.00;;;0.50;;
69207;SDS011;70114;47.690;8.898;2024-02-26T09:24:22;4.60;;;0.63;;
69207;SDS011;70114;47.690;8.898;2024-02-26T09:26:47;4.73;;;0.67;;
69207;SDS011;70114;47.690;8.898;2024-02-26T09:29:13;4.10;;;0.50;;
69207;SDS011;70114;47.690;8.898;2024-02-26T09:31:38;3.37;;;0.40;;
69207;SDS011;70114;47.690;8.898;2024-02-26T09:34:06;4.32;;;0.50;;
69207;SDS011;70114;47.690;8.898;2024-02-26T09:36:32;4.70;;;0.70;;
69207;SDS011;70114;47.690;8.898;2024-02-26T09:38:58;5.30;;;0.70;;
69207;SDS011;70114;47.690;8.898;2024-02-26T09:41:23;5.90;;;0.90;;
69207;SDS011;70114;47.690;8.898;2024-02-26T09:43:52;4.50;;;0.80;;
69207;SDS011;70114;47.690;8.898;2024-02-26T09:46:21;5.63;;;1.03;;
69207;SDS011;70114;47.690;8.898;2024-02-26T09:48:48;4.13;;;0.70;;
69207;SDS011;70114;47.690;8.898;2024-02-26T09:51:14;4.43;;;0.60;;
69207;SDS011;70114;47.690;8.898;2024-02-26T09:53:42;4.60;;;0.70;;
69207;SDS011;70114;47.690;8.898;2024-02-26T09:56:10;3.78;;;0.57;;
69207;SDS011;70114;47.690;8.898;2024-02-26T09:58:37;6.50;;;0.80;;
69207;SDS011;70114;47.690;8.898;2024-02-26T10:01:04;3.63;;;0.63;;
69207;SDS011;70114;47.690;8.898;2024-02-26T10:03:38;4.55;;;0.60;;
69207;SDS011;70114;47.690;8.898;2024-02-26T10:06:07;4.47;;;0.70;;
69207;SDS011;70114;47.690;8.898;2024-02-26T10:08:33;9.10;;;3.42;;
69207;SDS011;70114;47.690;8.898;2024-02-26T10:11:00;5.13;;;0.87;;
69207;SDS011;70114;47.690;8.898;2024-02-26T10:13:26;4.60;;;0.70;;
69207;SDS011;70114;47.690;8.898;2024-02-26T10:15:51;4.60;;;0.60;;
69207;SDS011;70114;47.690;8.898;2024-02-26T10:18:17;5.03;;;0.83;;
69207;SDS011;70114;47.690;8.898;2024-02-26T10:20:42;4.38;;;0.60;;
69207;SDS011;70114;47.690;8.898;2024-02-26T10:23:25;4.27;;;0.70;;
69207;SDS011;70114;47.690;8.898;2024-02-26T10:25:54;4.53;;;0.60;;
69207;SDS011;70114;47.690;8.898;2024-02-26T10:28:20;3.53;;;0.60;;
69207;SDS011;70114;47.690;8.898;2024-02-26T10:30:45;3.83;;;0.52;;
69207;SDS011;70114;47.690;8.898;2024-02-26T10:33:11;3.17;;;0.53;;
69207;SDS011;70114;47.690;8.898;2024-02-26T10:35:38;2.88;;;0.50;;
69207;SDS011;70114;47.690;8.898;2024-02-26T10:38:06;3.88;;;0.50;;
69207;SDS011;70114;47.690;8.898;2024-02-26T10:40:32;3.92;;;0.55;;
69207;SDS011;70114;47.690;8.898;2024-02-26T10:42:57;4.60;;;0.70;;
69207;SDS011;70114;47.690;8.898;2024-02-26T10:45:23;3.97;;;0.50;;
69207;SDS011;70114;47.690;8.898;2024-02-26T10:47:49;4.37;;;0.70;;
69207;SDS011;70114;47.690;8.898;2024-02-26T10:50:15;4.53;;;0.88;;
69207;SDS011;70114;47.690;8.898;2024-02-26T10:52:41;4.03;;;0.60;;
69207;SDS011;70114;47.690;8.898;2024-02-26T10:55:07;3.75;;;0.55;;
69207;SDS011;70114;47.690;8.898;2024-02-26T10:57:39;3.55;;;0.60;;
69207;SDS011;70114;47.690;8.898;2024-02-26T11:00:06;5.20;;;0.75;;
69207;SDS011;70114;47.690;8.898;2024-02-26T11:02:33;4.43;;;0.60;;
69207;SDS011;70114;47.690;8.898;2024-02-26T11:05:04;3.70;;;0.57;;
69207;SDS011;70114;47.690;8.898;2024-02-26T11:07:31;4.65;;;0.50;;
69207;SDS011;70114;47.690;8.898;2024-02-26T11:10:00;3.85;;;0.50;;
69207;SDS011;70114;47.690;8.898;2024-02-26T11:12:29;4.05;;;0.50;;
69207;SDS011;70114;47.690;8.898;2024-02-26T11:14:57;4.13;;;0.60;;
69207;SDS011;70114;47.690;8.898;2024-02-26T11:17:26;3.63;;;0.60;;
69207;SDS011;70114;47.690;8.898;2024-02-26T11:19:57;3.88;;;0.60;;
69207;SDS011;70114;47.690;8.898;2024-02-26T11:22:26;3.50;;;0.60;;
69207;SDS011;70114;47.690;8.898;2024-02-26T11:24:52;3.40;;;0.50;;
69207;SDS011;70114;47.690;8.898;2024-02-26T11:27:19;2.72;;;0.40;;
69207;SDS011;70114;47.690;8.898;2024-02-26T11:29:49;4.60;;;0.70;;
69207;SDS011;70114;47.690;8.898;2024-02-26T11:32:17;3.70;;;0.50;;
69207;SDS011;70114;47.690;8.898;2024-02-26T11:34:43;3.08;;;0.40;;
69207;SDS011;70114;47.690;8.898;2024-02-26T11:37:13;3.17;;;0.45;;
69207;SDS011;70114;47.690;8.898;2024-02-26T11:39:40;3.33;;;0.55;;
69207;SDS011;70114;47.690;8.898;2024-02-26T11:42:06;3.67;;;0.60;;
69207;SDS011;70114;47.690;8.898;2024-02-26T11:44:33;4.32;;;0.70;;
69207;SDS011;70114;47.690;8.898;2024-02-26T11:46:59;3.80;;;0.50;;
69207;SDS011;70114;47.690;8.898;2024-02-26T11:49:34;4.37;;;0.53;;
69207;SDS011;70114;47.690;8.898;2024-02-26T11:52:00;3.08;;;0.40;;
69207;SDS011;70114;47.690;8.898;2024-02-26T11:54:49;2.90;;;0.40;;
69207;SDS011;70114;47.690;8.898;2024-02-26T12:00:10;2.55;;;0.40;;
69207;SDS011;70114;47.690;8.898;2024-02-26T12:07:36;3.35;;;0.40;;
69207;SDS011;70114;47.690;8.898;2024-02-26T12:10:25;5.95;;;1.58;;
69207;SDS011;70114;47.690;8.898;2024-02-26T12:13:14;4.30;;;0.50;;
69207;SDS011;70114;47.690;8.898;2024-02-26T12:18:07;5.25;;;0.50;;
69207;SDS011;70114;47.690;8.898;2024-02-26T12:20:35;4.40;;;0.50;;
69207;SDS011;70114;47.690;8.898;2024-02-26T12:23:01;4.78;;;0.70;;
69207;SDS011;70114;47.690;8.898;2024-02-26T12:25:30;3.70;;;0.50;;
69207;SDS011;70114;47.690;8.898;2024-02-26T12:27:56;3.43;;;0.40;;
69207;SDS011;70114;47.690;8.898;2024-02-26T12:30:22;4.63;;;0.60;;
69207;SDS011;70114;47.690;8.898;2024-02-26T12:32:49;4.07;;;0.60;;
69207;SDS011;70114;47.690;8.898;2024-02-26T12:35:15;4.03;;;0.60;;
69207;SDS011;70114;47.690;8.898;2024-02-26T12:37:44;4.88;;;0.75;;
69207;SDS011;70114;47.690;8.898;2024-02-26T12:40:11;3.57;;;0.43;;
69207;SDS011;70114;47.690;8.898;2024-02-26T12:42:38;4.00;;;0.63;;
69207;SDS011;70114;47.690;8.898;2024-02-26T12:45:07;4.28;;;0.70;;
69207;SDS011;70114;47.690;8.898;2024-02-26T12:47:35;4.88;;;0.90;;
69207;SDS011;70114;47.690;8.898;2024-02-26T12:50:02;4.45;;;0.70;;
69207;SDS011;70114;47.690;8.898;2024-02-26T12:52:29;3.90;;;0.63;;
69207;SDS011;70114;47.690;8.898;2024-02-26T12:54:58;4.38;;;0.60;;
69207;SDS011;70114;47.690;8.898;2024-02-26T12:57:24;4.30;;;0.60;;
69207;SDS011;70114;47.690;8.898;2024-02-26T12:59:50;4.33;;;0.60;;
69207;SDS011;70114;47.690;8.898;2024-02-26T13:02:16;3.58;;;0.50;;
69207;SDS011;70114;47.690;8.898;2024-02-26T13:04:41;3.30;;;0.60;;
69207;SDS011;70114;47.690;8.898;2024-02-26T13:07:07;4.72;;;0.50;;
69207;SDS011;70114;47.690;8.898;2024-02-26T13:09:33;3.83;;;0.50;;
69207;SDS011;70114;47.690;8.898;2024-02-26T13:12:00;4.28;;;0.70;;
69207;SDS011;70114;47.690;8.898;2024-02-26T13:14:29;3.38;;;0.50;;
69207;SDS011;70114;47.690;8.898;2024-02-26T13:16:57;3.97;;;0.53;;
69207;SDS011;70114;47.690;8.898;2024-02-26T13:19:23;3.55;;;0.60;;
69207;SDS011;70114;47.690;8.898;2024-02-26T13:21:49;4.68;;;0.80;;
69207;SDS011;70114;47.690;8.898;2024-02-26T13:24:15;4.07;;;0.60;;
69207;SDS011;70114;47.690;8.898;2024-02-26T13:26:40;3.70;;;0.52;;
69207;SDS011;70114;47.690;8.898;2024-02-26T13:29:06;2.90;;;0.40;;
69207;SDS011;70114;47.690;8.898;2024-02-26T13:31:31;3.60;;;0.70;;
69207;SDS011;70114;47.690;8.898;2024-02-26T13:34:03;4.25;;;0.70;;
69207;SDS011;70114;47.690;8.898;2024-02-26T13:36:29;3.90;;;0.60;;
69207;SDS011;70114;47.690;8.898;2024-02-26T13:38:54;4.00;;;0.73;;
69207;SDS011;70114;47.690;8.898;2024-02-26T13:41:21;4.30;;;0.70;;
69207;SDS011;70114;47.690;8.898;2024-02-26T13:43:47;3.88;;;0.60;;
69207;SDS011;70114;47.690;8.898;2024-02-26T13:46:13;4.20;;;0.60;;
69207;SDS011;70114;47.690;8.898;2024-02-26T13:48:40;3.08;;;0.47;;
69207;SDS011;70114;47.690;8.898;2024-02-26T13:51:06;4.40;;;0.60;;
69207;SDS011;70114;47.690;8.898;2024-02-26T13:53:31;4.07;;;0.70;;
69207;SDS011;70114;47.690;8.898;2024-02-26T13:55:57;3.40;;;0.60;;
69207;SDS011;70114;47.690;8.898;2024-02-26T13:58:23;5.25;;;0.60;;
69207;SDS011;70114;47.690;8.898;2024-02-26T14:00:49;4.57;;;0.70;;
69207;SDS011;70114;47.690;8.898;2024-02-26T14:03:15;3.27;;;0.50;;
69207;SDS011;70114;47.690;8.898;2024-02-26T14:05:41;4.05;;;0.70;;
69207;SDS011;70114;47.690;8.898;2024-02-26T14:08:07;4.17;;;0.60;;
69207;SDS011;70114;47.690;8.898;2024-02-26T14:10:32;4.25;;;0.60;;
69207;SDS011;70114;47.690;8.898;2024-02-26T14:12:58;3.50;;;0.60;;
69207;SDS011;70114;47.690;8.898;2024-02-26T14:15:24;8.75;;;0.70;;
69207;SDS011;70114;47.690;8.898;2024-02-26T14:17:50;4.83;;;0.50;;
69207;SDS011;70114;47.690;8.898;2024-02-26T14:20:18;3.38;;;0.50;;
69207;SDS011;70114;47.690;8.898;2024-02-26T14:22:43;2.70;;;0.40;;
69207;SDS011;70114;47.690;8.898;2024-02-26T14:25:09;3.90;;;0.40;;
69207;SDS011;70114;47.690;8.898;2024-02-26T14:27:34;4.63;;;0.50;;
69207;SDS011;70114;47.690;8.898;2024-02-26T14:30:00;3.27;;;0.40;;
69207;SDS011;70114;47.690;8.898;2024-02-26T14:32:25;3.63;;;0.50;;
69207;SDS011;70114;47.690;8.898;2024-02-26T14:34:51;3.80;;;0.50;;
69207;SDS011;70114;47.690;8.898;2024-02-26T14:37:16;3.53;;;0.50;;
69207;SDS011;70114;47.690;8.898;2024-02-26T14:39:41;4.13;;;0.60;;
69207;SDS011;70114;47.690;8.898;2024-02-26T14:42:07;4.47;;;0.50;;
69207;SDS011;70114;47.690;8.898;2024-02-26T14:44:32;3.37;;;0.50;;
69207;SDS011;70114;47.690;8.898;2024-02-26T14:46:57;3.33;;;0.50;;
69207;SDS011;70114;47.690;8.898;2024-02-26T14:49:23;3.53;;;0.40;;
69207;SDS011;70114;47.690;8.898;2024-02-26T14:51:48;3.27;;;0.40;;